createdAt,value
2018-11-25T00:00:15.800Z,5.350
2018-11-25T00:03:15.803Z,2.475
2018-11-25T00:06:15.872Z,8.688
2018-11-25T00:09:15.275Z,10.450
2018-11-25T00:12:15.890Z,13.550
2018-11-25T00:15:15.859Z,3.388
2018-11-25T00:18:15.363Z,3.062
2018-11-25T00:21:15.624Z,3.125
2018-11-25T00:24:15.633Z,2.300
2018-11-25T00:27:15.738Z,3.812
2018-11-25T00:30:15.753Z,3.837
2018-11-25T00:33:26.089Z,1.338
2018-11-25T00:36:15.255Z,3.612
2018-11-25T00:39:15.813Z,2.875
2018-11-25T00:42:15.696Z,1.525
2018-11-25T00:45:15.980Z,2.837
2018-11-25T00:48:15.159Z,2.075
2018-11-25T00:51:15.610Z,1.575
2018-11-25T00:54:15.680Z,4.112
2018-11-25T00:57:15.582Z,1.362
2018-11-25T01:00:15.528Z,1.788
2018-11-25T01:03:15.898Z,4.125
2018-11-25T01:06:15.335Z,2.025
2018-11-25T01:09:15.443Z,4.175
2018-11-25T01:12:15.604Z,4.975
2018-11-25T01:15:15.537Z,5.925
2018-11-25T01:18:15.885Z,1.500
2018-11-25T01:21:15.125Z,7.913
2018-11-25T01:24:15.230Z,1.775
2018-11-25T01:27:15.472Z,5.188
2018-11-25T01:30:15.649Z,3.212
2018-11-25T01:33:15.985Z,2.625
2018-11-25T01:36:15.024Z,3.750
2018-11-25T01:39:16.071Z,2.362
2018-11-25T01:42:15.205Z,3.250
2018-11-25T01:45:15.507Z,3.163
2018-11-25T01:48:15.661Z,5.312
2018-11-25T01:51:15.677Z,4.612
2018-11-25T01:54:15.829Z,2.188
2018-11-25T01:57:15.038Z,2.812
2018-11-25T02:00:14.923Z,8.200
2018-11-25T02:03:15.964Z,6.237
2018-11-25T02:06:15.008Z,6.400
2018-11-25T02:09:15.150Z,5.388
2018-11-25T02:12:15.109Z,5.412
2018-11-25T02:15:15.057Z,2.775
2018-11-25T02:18:15.069Z,2.550
2018-11-25T02:21:15.106Z,3.875
2018-11-25T02:24:15.148Z,6.713
2018-11-25T02:27:15.107Z,1.838
2018-11-25T02:30:15.062Z,3.175
2018-11-25T02:33:15.170Z,5.062
2018-11-25T02:36:15.005Z,4.750
2018-11-25T02:39:15.058Z,3.300
2018-11-25T02:42:15.042Z,2.225
2018-11-25T02:45:14.944Z,4.112
2018-11-25T02:48:15.031Z,10.512
2018-11-25T02:51:15.164Z,1.812
2018-11-25T02:54:15.255Z,4.263
2018-11-25T02:57:15.329Z,1.763
2018-11-25T03:00:15.250Z,8.688
2018-11-25T03:03:15.668Z,4.275
2018-11-25T03:06:15.713Z,0.825
2018-11-25T03:09:15.766Z,1.975
2018-11-25T03:12:15.771Z,1.138
2018-11-25T03:15:15.420Z,2.550
2018-11-25T03:18:15.657Z,12.225
2018-11-25T03:21:15.877Z,6.938
2018-11-25T03:24:15.472Z,3.550
2018-11-25T03:27:15.325Z,8.887
2018-11-25T03:30:15.204Z,5.625
2018-11-25T03:33:15.915Z,10.913
2018-11-25T03:36:15.185Z,2.875
2018-11-25T03:39:15.901Z,4.487
2018-11-25T03:42:15.823Z,10.737
2018-11-25T03:45:15.386Z,11.562
2018-11-25T03:48:15.131Z,2.050
2018-11-25T03:51:16.037Z,2.962
2018-11-25T03:54:15.544Z,5.050
2018-11-25T03:57:15.705Z,1.188
2018-11-25T04:00:15.726Z,1.875
2018-11-25T04:03:15.766Z,2.800
2018-11-25T04:06:15.835Z,2.188
2018-11-25T04:09:15.936Z,14.300
2018-11-25T04:12:15.814Z,5.087
2018-11-25T04:15:15.850Z,2.325
2018-11-25T04:18:14.921Z,3.975
2018-11-25T04:21:15.213Z,2.812
2018-11-25T04:24:15.164Z,2.888
2018-11-25T04:27:15.225Z,2.650
2018-11-25T04:30:15.828Z,2.487
2018-11-25T04:33:15.834Z,3.912
2018-11-25T04:36:15.110Z,6.375
2018-11-25T04:39:15.729Z,3.312
2018-11-25T04:42:15.044Z,6.012
2018-11-25T04:45:15.920Z,4.675
2018-11-25T04:48:15.235Z,1.750
2018-11-25T04:51:15.283Z,2.275
2018-11-25T04:54:15.514Z,8.600
2018-11-25T04:57:15.866Z,8.275
2018-11-25T05:00:15.184Z,2.337
2018-11-25T05:03:15.387Z,9.750
2018-11-25T05:06:15.386Z,17.975
2018-11-25T05:09:15.333Z,14.737
2018-11-25T05:12:15.296Z,16.375
2018-11-25T05:15:15.490Z,5.350
2018-11-25T05:18:15.717Z,10.800
2018-11-25T05:21:15.916Z,6.488
2018-11-25T05:24:15.821Z,5.950
2018-11-25T05:27:15.066Z,2.312
2018-11-25T05:30:15.100Z,2.463
2018-11-25T05:33:15.205Z,5.625
2018-11-25T05:36:15.231Z,2.725
2018-11-25T05:39:15.344Z,7.838
2018-11-25T05:42:15.341Z,4.175
2018-11-25T05:45:15.603Z,7.100
2018-11-25T05:48:15.431Z,2.237
2018-11-25T05:51:15.912Z,14.175
2018-11-25T05:54:15.791Z,3.562
2018-11-25T05:57:15.900Z,4.650
2018-11-25T06:00:15.468Z,4.125
2018-11-25T06:03:15.382Z,6.488
2018-11-25T06:06:15.485Z,4.475
2018-11-25T06:09:15.681Z,5.213
2018-11-25T06:12:15.647Z,14.125
2018-11-25T06:15:15.925Z,4.537
2018-11-25T06:18:15.026Z,9.163
2018-11-25T06:21:15.032Z,3.888
2018-11-25T06:24:15.365Z,7.062
2018-11-25T06:27:15.374Z,3.025
2018-11-25T06:30:15.966Z,9.887
2018-11-25T06:33:15.493Z,4.700
2018-11-25T06:36:15.777Z,3.575
2018-11-25T06:39:15.920Z,6.888
2018-11-25T06:42:15.149Z,2.987
2018-11-25T06:45:15.503Z,4.638
2018-11-25T06:48:16.007Z,2.638
2018-11-25T06:51:15.241Z,4.325
2018-11-25T06:54:15.618Z,15.775
2018-11-25T06:57:15.490Z,12.012
2018-11-25T07:00:15.910Z,7.050
2018-11-25T07:03:15.362Z,8.912
2018-11-25T07:06:15.643Z,3.650
2018-11-25T07:09:15.819Z,3.412
2018-11-25T07:12:15.135Z,1.663
2018-11-25T07:15:15.380Z,12.600
2018-11-25T07:18:15.610Z,11.325
2018-11-25T07:21:15.728Z,6.762
2018-11-25T07:24:15.238Z,5.238
2018-11-25T07:27:15.228Z,8.975
2018-11-25T07:30:15.515Z,3.538
2018-11-25T07:33:15.707Z,6.338
2018-11-25T07:36:15.861Z,1.475
2018-11-25T07:39:15.006Z,3.188
2018-11-25T07:42:15.165Z,2.950
2018-11-25T07:45:15.176Z,1.688
2018-11-25T07:48:15.929Z,2.962
2018-11-25T07:51:15.287Z,3.000
2018-11-25T07:54:15.187Z,0.725
2018-11-25T07:57:15.466Z,2.325
2018-11-25T08:00:15.900Z,3.050
2018-11-25T08:03:15.280Z,3.312
2018-11-25T08:06:15.361Z,9.113
2018-11-25T08:09:15.565Z,11.325
2018-11-25T08:12:15.784Z,10.075
2018-11-25T08:15:15.184Z,9.725
2018-11-25T08:18:15.669Z,4.500
2018-11-25T08:21:15.868Z,5.175
2018-11-25T08:24:15.043Z,5.025
2018-11-25T08:27:15.940Z,12.125
2018-11-25T08:30:14.933Z,16.387
2018-11-25T08:33:15.286Z,6.375
2018-11-25T08:36:15.887Z,5.438
2018-11-25T08:39:15.126Z,6.987
2018-11-25T08:42:15.303Z,9.700
2018-11-25T08:45:15.605Z,9.450
2018-11-25T08:48:15.677Z,4.200
2018-11-25T08:51:15.785Z,6.650
2018-11-25T08:54:15.453Z,11.900
2018-11-25T08:57:15.663Z,14.000
2018-11-25T09:00:15.125Z,17.737
2018-11-25T09:03:15.747Z,12.213
2018-11-25T09:06:15.896Z,19.800
2018-11-25T09:09:15.225Z,21.438
2018-11-25T09:12:15.492Z,12.825
2018-11-25T09:15:15.771Z,9.225
2018-11-25T09:18:15.356Z,34.037
2018-11-25T09:21:15.657Z,33.737
2018-11-25T09:24:16.010Z,19.125
2018-11-25T09:27:15.256Z,20.700
2018-11-25T09:30:15.614Z,21.325
2018-11-25T09:33:15.197Z,34.425
2018-11-25T09:36:15.287Z,23.362
2018-11-25T09:39:15.646Z,15.062
2018-11-25T09:42:14.922Z,25.812
2018-11-25T09:45:15.353Z,30.537
2018-11-25T09:48:16.135Z,31.875
2018-11-25T09:51:15.246Z,21.350
2018-11-25T09:54:15.659Z,20.988
2018-11-25T09:57:15.103Z,27.125
2018-11-25T10:00:15.276Z,20.988
2018-11-25T10:03:15.266Z,34.950
2018-11-25T10:06:15.320Z,30.400
2018-11-25T10:09:15.831Z,21.450
2018-11-25T10:12:15.020Z,16.812
2018-11-25T10:15:15.283Z,20.775
2018-11-25T10:18:15.851Z,22.175
2018-11-25T10:21:15.907Z,19.800
2018-11-25T10:24:15.144Z,23.663
2018-11-25T10:27:15.366Z,24.550
2018-11-25T10:30:15.430Z,20.538
2018-11-25T10:33:15.863Z,18.175
2018-11-25T10:36:15.919Z,15.387
2018-11-25T10:39:15.962Z,19.950
2018-11-25T10:42:15.153Z,26.025
2018-11-25T10:45:15.428Z,18.038
2018-11-25T10:48:15.591Z,14.238
2018-11-25T10:51:15.718Z,13.650
2018-11-25T10:54:15.231Z,12.925
2018-11-25T10:57:15.423Z,19.788
2018-11-25T11:00:15.333Z,27.075
2018-11-25T11:03:16.027Z,15.225
2018-11-25T11:06:15.338Z,20.762
2018-11-25T11:09:15.255Z,11.738
2018-11-25T11:12:15.586Z,18.225
2018-11-25T11:15:16.054Z,15.025
2018-11-25T11:18:15.381Z,23.925
2018-11-25T11:21:15.716Z,18.100
2018-11-25T11:24:15.202Z,14.088
2018-11-25T11:27:15.479Z,22.650
2018-11-25T11:30:15.514Z,24.188
2018-11-25T11:33:15.882Z,25.925
2018-11-25T11:36:15.088Z,16.288
2018-11-25T11:39:15.268Z,21.250
2018-11-25T11:42:15.347Z,18.263
2018-11-25T11:45:15.832Z,17.200
2018-11-25T11:48:15.196Z,20.962
2018-11-25T11:51:15.280Z,16.450
2018-11-25T11:54:15.354Z,17.788
2018-11-25T11:57:15.674Z,18.800
2018-11-25T12:00:15.764Z,17.188
2018-11-25T12:03:15.449Z,19.213
2018-11-25T12:06:15.451Z,15.200
2018-11-25T12:09:15.804Z,17.825
2018-11-25T12:12:15.892Z,16.788
2018-11-25T12:15:15.013Z,19.975
2018-11-25T12:18:15.144Z,15.600
2018-11-25T12:21:15.173Z,22.250
2018-11-25T12:24:15.329Z,15.150
2018-11-25T12:27:15.809Z,15.113
2018-11-25T12:30:15.936Z,16.125
2018-11-25T12:33:15.269Z,11.700
2018-11-25T12:36:15.431Z,13.725
2018-11-25T12:39:15.602Z,13.600
2018-11-25T12:42:15.756Z,15.238
2018-11-25T12:45:15.296Z,12.075
2018-11-25T12:48:15.410Z,14.787
2018-11-25T12:51:15.555Z,16.150
2018-11-25T12:54:15.896Z,16.875
2018-11-25T12:57:15.144Z,13.713
2018-11-25T13:00:15.349Z,13.212
2018-11-25T13:03:15.241Z,16.762
2018-11-25T13:06:15.545Z,16.887
2018-11-25T13:09:15.080Z,15.712
2018-11-25T13:12:15.037Z,14.100
2018-11-25T13:15:16.535Z,11.862
2018-11-25T13:18:15.878Z,16.863
2018-11-25T13:21:15.259Z,18.425
2018-11-25T13:24:15.557Z,15.113
2018-11-25T13:27:15.874Z,14.688
2018-11-25T13:30:15.041Z,13.062
2018-11-25T13:33:15.164Z,17.725
2018-11-25T13:36:15.094Z,11.488
2018-11-25T13:39:15.328Z,14.787
2018-11-25T13:42:16.306Z,14.600
2018-11-25T13:45:15.565Z,19.350
2018-11-25T13:48:15.786Z,15.087
2018-11-25T13:51:15.897Z,14.950
2018-11-25T13:54:15.224Z,13.975
2018-11-25T13:57:15.525Z,8.600
2018-11-25T14:00:15.846Z,10.075
2018-11-25T14:03:14.946Z,16.800
2018-11-25T14:06:15.862Z,11.175
2018-11-25T14:09:15.104Z,8.637
2018-11-25T14:12:15.546Z,12.213
2018-11-25T14:15:15.630Z,16.800
2018-11-25T14:18:15.873Z,9.350
2018-11-25T14:21:15.801Z,14.625
2018-11-25T14:24:15.280Z,15.762
2018-11-25T14:27:15.511Z,8.625
2018-11-25T14:30:15.702Z,10.338
2018-11-25T14:33:15.227Z,8.137
2018-11-25T14:36:16.059Z,11.637
2018-11-25T14:39:15.238Z,10.425
2018-11-25T14:42:15.419Z,12.925
2018-11-25T14:45:15.804Z,6.900
2018-11-25T14:48:14.971Z,17.675
2018-11-25T14:51:15.067Z,18.587
2018-11-25T14:54:15.139Z,6.263
2018-11-25T14:57:15.205Z,8.425
2018-11-25T15:00:15.176Z,14.538
2018-11-25T15:03:15.253Z,9.213
2018-11-25T15:06:15.434Z,10.512
2018-11-25T15:09:15.744Z,12.450
2018-11-25T15:12:15.691Z,10.200
2018-11-25T15:15:15.888Z,12.425
2018-11-25T15:18:15.217Z,10.312
2018-11-25T15:21:15.251Z,9.613
2018-11-25T15:24:15.465Z,13.150
2018-11-25T15:27:15.832Z,11.863
2018-11-25T15:30:33.516Z,10.725
2018-11-25T15:33:17.050Z,7.525
2018-11-25T15:36:16.040Z,9.875
2018-11-25T15:39:16.230Z,8.338
2018-11-25T15:42:23.393Z,7.238
2018-11-25T15:45:16.324Z,12.675
2018-11-25T15:57:18.063Z,14.537
2018-11-25T16:00:15.205Z,10.363
2018-11-25T16:03:15.186Z,10.012
2018-11-25T16:06:15.138Z,12.225
2018-11-25T16:09:15.432Z,9.800
2018-11-25T16:12:15.652Z,7.763
2018-11-25T16:15:14.882Z,9.287
2018-11-25T16:18:15.403Z,8.425
2018-11-25T16:21:15.539Z,18.062
2018-11-25T16:24:14.942Z,5.537
2018-11-25T16:27:15.896Z,9.875
2018-11-25T16:30:15.203Z,13.350
2018-11-25T16:48:14.636Z,16.550
2018-11-25T16:51:15.439Z,8.762
2018-11-25T16:54:14.985Z,5.912
2018-11-25T16:57:15.858Z,10.163
2018-11-25T17:00:15.557Z,12.300
2018-11-25T17:03:15.360Z,9.000
2018-11-25T17:06:14.913Z,13.500
2018-11-25T17:09:15.630Z,7.700
2018-11-25T17:12:15.457Z,4.912
2018-11-25T17:15:15.095Z,8.638
2018-11-25T17:18:15.470Z,7.800
2018-11-25T17:21:15.087Z,7.138
2018-11-25T17:24:15.614Z,13.775
2018-11-25T17:27:15.289Z,10.975
2018-11-25T17:30:15.150Z,7.975
2018-11-25T17:33:15.889Z,12.188
2018-11-25T17:36:15.452Z,10.738
2018-11-25T17:39:15.196Z,9.400
2018-11-25T17:42:15.908Z,11.113
2018-11-25T17:45:15.624Z,9.537
2018-11-25T17:48:15.313Z,10.525
2018-11-25T17:51:15.009Z,8.613
2018-11-25T17:54:15.740Z,21.212
2018-11-25T17:57:15.367Z,12.438
2018-11-25T18:00:15.141Z,9.125
2018-11-25T18:03:15.755Z,13.175
2018-11-25T18:06:15.494Z,12.325
2018-11-25T18:09:15.226Z,11.400
2018-11-25T18:12:14.848Z,6.575
2018-11-25T18:15:15.536Z,8.237
2018-11-25T18:18:15.276Z,10.425
2018-11-25T18:21:15.880Z,22.838
2018-11-25T18:24:14.895Z,11.625
2018-11-25T18:27:15.097Z,15.025
2018-11-25T18:30:15.584Z,12.700
2018-11-25T18:33:15.920Z,12.337
2018-11-25T18:36:15.890Z,16.387
2018-11-25T18:39:15.734Z,14.863
2018-11-25T18:42:15.551Z,13.788
2018-11-25T18:45:15.587Z,16.300
2018-11-25T18:48:16.051Z,17.137
2018-11-25T18:51:15.021Z,8.525
2018-11-25T18:54:15.884Z,17.438
2018-11-25T18:57:15.958Z,14.725
2018-11-25T19:00:15.125Z,12.912
2018-11-25T19:03:28.536Z,11.562
2018-11-25T19:06:39.411Z,11.587
2018-11-25T19:09:20.172Z,9.775
2018-11-25T19:12:44.088Z,11.300
2018-11-25T19:15:30.125Z,13.375
2018-11-25T19:21:23.091Z,11.825
2018-11-25T19:24:15.441Z,8.512
2018-11-25T19:27:15.348Z,12.925
2018-11-25T19:30:15.218Z,12.375
2018-11-25T19:33:15.081Z,23.750
2018-11-25T19:36:15.871Z,27.000
2018-11-25T19:39:15.726Z,14.062
2018-11-25T19:42:15.487Z,13.450
2018-11-25T19:45:15.804Z,13.900
2018-11-25T19:48:15.612Z,10.000
2018-11-25T19:51:17.602Z,10.600
2018-11-25T19:54:15.846Z,13.488
2018-11-25T19:57:15.756Z,14.387
2018-11-25T20:00:15.796Z,11.325
2018-11-25T20:03:15.081Z,11.787
2018-11-25T20:06:15.531Z,13.225
2018-11-25T20:09:15.532Z,7.688
2018-11-25T20:12:15.153Z,13.575
2018-11-25T20:15:15.902Z,10.750
2018-11-25T20:18:15.039Z,10.150
2018-11-25T20:21:14.955Z,16.700
2018-11-25T20:24:15.644Z,10.963
2018-11-25T20:27:15.385Z,8.175
2018-11-25T20:30:15.956Z,9.725
2018-11-25T20:33:15.101Z,12.112
2018-11-25T20:36:15.652Z,13.875
2018-11-25T20:39:15.615Z,10.675
2018-11-25T20:42:15.453Z,13.637
2018-11-25T20:45:15.227Z,11.163
2018-11-25T20:48:15.711Z,16.300
2018-11-25T20:51:15.585Z,14.413
2018-11-25T20:54:15.129Z,13.662
2018-11-25T20:57:14.915Z,9.900
2018-11-25T21:00:15.798Z,11.438
2018-11-25T21:03:15.279Z,26.875
2018-11-25T21:06:15.142Z,11.988
2018-11-25T21:09:14.931Z,17.200
2018-11-25T21:12:15.864Z,18.487
2018-11-25T21:15:15.734Z,21.050
2018-11-25T21:18:15.748Z,10.200
2018-11-25T21:21:15.114Z,14.350
2018-11-25T21:24:16.044Z,12.175
2018-11-25T21:27:15.872Z,10.262
2018-11-25T21:30:15.613Z,13.412
2018-11-25T21:33:15.731Z,10.175
2018-11-25T21:36:15.605Z,13.475
2018-11-25T21:39:15.715Z,10.350
2018-11-25T21:42:15.604Z,9.838
2018-11-25T21:45:15.294Z,14.312
2018-11-25T21:48:15.126Z,16.238
2018-11-25T21:51:15.912Z,17.075
2018-11-25T21:54:15.686Z,20.250
2018-11-25T21:57:15.573Z,15.088
2018-11-25T22:00:15.432Z,9.950
2018-11-25T22:03:15.755Z,10.363
2018-11-25T22:06:15.610Z,11.425
2018-11-25T22:09:15.338Z,13.938
2018-11-25T22:12:15.004Z,7.812
2018-11-25T22:15:15.486Z,11.137
2018-11-25T22:18:15.516Z,19.288
2018-11-25T22:21:15.322Z,10.888
2018-11-25T22:24:15.176Z,11.113
2018-11-25T22:27:15.292Z,14.450
2018-11-25T22:30:15.071Z,15.850
2018-11-25T22:33:15.544Z,16.400
2018-11-25T22:36:15.315Z,13.712
2018-11-25T22:39:15.520Z,20.125
2018-11-25T22:42:15.021Z,15.250
2018-11-25T22:45:15.154Z,16.050
2018-11-25T22:48:15.539Z,7.787
2018-11-25T22:51:14.948Z,10.012
2018-11-25T22:54:15.310Z,14.250
2018-11-25T22:57:15.612Z,16.112
2018-11-25T23:00:15.846Z,12.963
2018-11-25T23:03:15.579Z,12.812
2018-11-25T23:06:15.329Z,11.675
2018-11-25T23:09:15.463Z,14.463
2018-11-25T23:12:15.208Z,18.700
2018-11-25T23:15:15.879Z,11.325
2018-11-25T23:18:15.124Z,11.113
2018-11-25T23:21:15.871Z,15.212
2018-11-25T23:24:15.739Z,12.538
2018-11-25T23:27:15.492Z,13.200
2018-11-25T23:30:15.411Z,15.088
2018-11-25T23:33:15.123Z,11.450
2018-11-25T23:36:15.839Z,13.200
2018-11-25T23:39:15.666Z,8.675
2018-11-25T23:42:15.344Z,18.100
2018-11-25T23:45:14.975Z,14.413
2018-11-25T23:48:15.712Z,13.325
2018-11-25T23:51:15.421Z,17.700
2018-11-25T23:54:15.303Z,9.137
2018-11-25T23:57:14.993Z,8.938
